Time;durP1;ratioP1;P1;durP2;ratioP2;P2;SDS_P1;SDS_P2;PMS_P1;PMS_P2;Temp;Humidity;BMP_temperature;BMP_pressure;BME280_temperature;BME280_humidity;BME280_pressure;Samples;Min_cycle;Max_cycle;Signal;HPM_P1;HPM_P2
2022/09/13 00:02:31;;;;;;;5.47;3.50;;;;;;;14.09;100.00;100060.25;6284745;28;20048;-89
2022/09/13 00:05:34;;;;;;;4.93;3.00;;;;;;;14.12;100.00;100044.34;6279396;28;20040;-88
2022/09/13 00:08:36;;;;;;;4.72;3.20;;;;;;;14.10;100.00;100048.88;6284347;28;20048;-89
2022/09/13 00:11:38;;;;;;;5.65;3.85;;;;;;;14.13;100.00;100044.16;6277719;28;20496;-89
2022/09/13 00:14:39;;;;;;;7.07;3.40;;;;;;;14.17;100.00;100037.69;6276431;28;20045;-89
2022/09/13 00:17:42;;;;;;;3.95;3.10;;;;;;;14.18;100.00;100049.72;6275129;28;20048;-89
2022/09/13 00:20:44;;;;;;;5.85;3.42;;;;;;;14.15;100.00;100051.81;6273750;28;20044;-89
2022/09/13 00:23:51;;;;;;;7.55;3.30;;;;;;;14.18;100.00;100049.72;6280945;28;20044;-89
2022/09/13 00:26:53;;;;;;;4.93;3.40;;;;;;;14.23;100.00;100051.84;6278177;28;20037;-89
2022/09/13 00:29:55;;;;;;;5.03;3.13;;;;;;;14.25;100.00;100056.91;6280935;28;20041;-89
2022/09/13 00:32:57;;;;;;;5.18;3.25;;;;;;;14.24;100.00;100047.47;6265818;28;20518;-89
2022/09/13 00:36:03;;;;;;;5.07;3.15;;;;;;;14.21;100.00;100041.59;6265415;28;20135;-89
2022/09/13 00:39:04;;;;;;;5.93;3.13;;;;;;;14.20;100.00;100033.94;6281934;28;20385;-89
2022/09/13 00:42:13;;;;;;;5.53;3.53;;;;;;;14.21;100.00;100027.78;6283485;28;20045;-89
2022/09/13 00:45:16;;;;;;;4.55;3.33;;;;;;;14.26;100.00;100022.91;6293427;28;20049;-89
2022/09/13 00:48:24;;;;;;;6.22;3.13;;;;;;;14.33;100.00;100017.88;6274925;28;20501;-89
2022/09/13 00:51:27;;;;;;;4.90;3.25;;;;;;;14.37;100.00;100017.41;6268850;28;20040;-89
2022/09/13 00:54:39;;;;;;;5.85;3.47;;;;;;;14.43;100.00;100014.19;6283947;28;20041;-89
2022/09/13 00:57:42;;;;;;;5.13;3.80;;;;;;;14.46;100.00;99999.19;6276016;28;20179;-89
2022/09/13 01:00:45;;;;;;;5.55;3.22;;;;;;;14.49;100.00;100004.09;6267071;28;20497;-89
2022/09/13 01:03:47;;;;;;;4.38;3.45;;;;;;;14.52;100.00;99993.38;6271355;28;20029;-88
2022/09/13 01:06:52;;;;;;;4.22;3.60;;;;;;;14.57;100.00;99988.53;6279877;28;20506;-89
2022/09/13 01:09:53;;;;;;;4.28;3.50;;;;;;;14.59;100.00;99989.97;6281298;28;20060;-89
2022/09/13 01:13:10;;;;;;;4.53;3.50;;;;;;;14.64;100.00;99984.31;6278387;28;20087;-89
2022/09/13 01:16:11;;;;;;;4.50;3.30;;;;;;;14.68;100.00;99980.38;6272708;28;20079;-89
2022/09/13 01:19:13;;;;;;;4.15;3.33;;;;;;;14.74;100.00;99971.13;6280460;28;20048;-89
2022/09/13 01:23:22;;;;;;;5.25;3.60;;;;;;;14.79;100.00;99969.66;6288668;28;20040;-89
2022/09/13 01:26:43;;;;;;;5.40;3.55;;;;;;;14.83;100.00;99963.16;6205851;28;20557;-89
2022/09/13 01:30:03;;;;;;;;;;;;;;;14.88;100.00;99960.06;6205160;28;20041;-89
2022/09/13 01:33:34;;;;;;;4.78;3.80;;;;;;;14.95;100.00;99955.81;6205078;28;20071;-89
2022/09/13 01:36:50;;;;;;;5.88;4.10;;;;;;;14.99;100.00;99954.50;6206352;28;20046;-89
2022/09/13 01:40:10;;;;;;;4.95;4.05;;;;;;;14.99;100.00;99949.28;6203491;28;20041;-89
2022/09/13 01:43:41;;;;;;;4.78;3.78;;;;;;;14.96;100.00;99941.00;6199721;28;20049;-89
2022/09/13 01:46:51;;;;;;;;;;;;;;;15.01;100.00;99938.72;6206647;28;20041;-89
2022/09/13 01:50:19;;;;;;;6.00;3.45;;;;;;;15.03;100.00;99940.19;6206163;28;19957;-89
2022/09/13 01:53:45;;;;;;;4.93;3.47;;;;;;;15.08;100.00;99932.69;6205936;28;20058;-89
2022/09/13 01:56:51;;;;;;;6.05;3.63;;;;;;;15.16;100.00;99939.66;6246616;28;20272;-89
2022/09/13 02:00:03;;;;;;;4.70;3.78;;;;;;;15.28;100.00;99932.31;6280460;28;20402;-89
2022/09/13 02:03:20;;;;;;;4.85;3.78;;;;;;;15.37;100.00;99925.28;6277460;28;20490;-89
2022/09/13 02:06:31;;;;;;;6.40;4.38;;;;;;;15.48;100.00;99937.97;6280119;28;20056;-89
2022/09/13 02:09:38;;;;;;;5.03;3.35;;;;;;;15.56;100.00;99930.13;6270741;28;20446;-89
2022/09/13 02:12:42;;;;;;;4.18;3.50;;;;;;;15.59;100.00;99936.78;6281677;28;20494;-89
2022/09/13 02:15:47;;;;;;;4.38;3.83;;;;;;;15.65;100.00;99943.94;6281059;28;20143;-89
2022/09/13 02:18:54;;;;;;;5.40;3.63;;;;;;;15.71;100.00;99941.50;6261398;28;20829;-89
2022/09/13 02:21:58;;;;;;;4.35;3.63;;;;;;;15.75;100.00;99943.75;6277086;28;20053;-89
2022/09/13 02:25:13;;;;;;;4.00;3.47;;;;;;;15.77;100.00;99941.81;6271907;28;20040;-89
2022/09/13 02:28:20;;;;;;;6.38;3.58;;;;;;;15.74;100.00;99945.56;6260490;28;20037;-88
2022/09/13 02:31:33;;;;;;;4.22;3.60;;;;;;;15.71;100.00;99944.13;6267466;28;20396;-89
2022/09/13 02:34:42;;;;;;;4.55;3.72;;;;;;;15.68;100.00;99949.66;6269770;28;20129;-90
2022/09/13 02:37:48;;;;;;;5.28;3.63;;;;;;;15.62;100.00;99952.91;6278213;28;20397;-89
2022/09/13 02:41:13;;;;;;;5.85;3.90;;;;;;;15.56;100.00;99951.00;6279804;28;20524;-89
2022/09/13 02:44:27;;;;;;;5.25;3.80;;;;;;;15.55;100.00;99954.56;6279482;28;20052;-90
2022/09/13 02:47:57;;;;;;;8.82;3.83;;;;;;;15.50;100.00;99980.34;6288919;28;20062;-94
2022/09/13 02:51:05;;;;;;;12.38;4.70;;;;;;;15.21;100.00;99968.66;6271142;28;20037;-93
2022/09/13 02:54:31;;;;;;;10.27;4.78;;;;;;;14.95;100.00;99963.63;6274136;28;20517;-90
2022/09/13 02:57:39;;;;;;;7.30;4.55;;;;;;;14.85;100.00;99969.00;6275335;28;20055;-89
2022/09/13 03:00:41;;;;;;;7.88;4.78;;;;;;;14.81;100.00;99962.50;6258483;28;20486;-90
2022/09/13 03:03:43;;;;;;;7.47;4.95;;;;;;;14.79;100.00;99954.03;6276759;28;20122;-91
2022/09/13 03:06:45;;;;;;;8.52;5.07;;;;;;;14.80;100.00;99960.03;6285209;28;20068;-90
2022/09/13 03:10:03;;;;;;;7.80;4.93;;;;;;;14.78;100.00;99968.03;6288521;28;20028;-90
2022/09/13 03:13:24;;;;;;;7.72;4.75;;;;;;;14.76;100.00;99954.34;6272979;28;20040;-89
2022/09/13 03:16:45;;;;;;;;;;;;;;;14.76;100.00;99958.75;6294838;28;20049;-91
2022/09/13 03:20:08;;;;;;;6.00;4.55;;;;;;;14.75;100.00;99955.31;6287834;28;20377;-90
2022/09/13 03:23:33;;;;;;;6.63;4.72;;;;;;;14.73;100.00;99949.47;6285836;28;20522;-91
2022/09/13 03:27:06;;;;;;;8.50;5.80;;;;;;;14.71;100.00;99946.22;6288565;28;20041;-91
2022/09/13 03:30:11;;;;;;;8.38;4.90;;;;;;;14.66;100.00;99940.69;6210922;28;20053;-91
2022/09/13 03:33:30;;;;;;;7.45;5.65;;;;;;;14.64;100.00;99934.81;6210002;28;20050;-90
2022/09/13 03:36:45;;;;;;;8.27;5.55;;;;;;;14.62;100.00;99937.56;6210820;28;20399;-91
2022/09/13 03:40:02;;;;;;;8.23;5.15;;;;;;;14.65;100.00;99936.41;6211854;28;20084;-90
2022/09/13 03:43:09;;;;;;;7.80;5.50;;;;;;;14.65;100.00;99934.63;6211567;28;20409;-90
2022/09/13 03:46:22;;;;;;;7.70;5.05;;;;;;;14.66;100.00;99932.84;6195144;28;20065;-90
2022/09/13 03:49:26;;;;;;;8.43;5.40;;;;;;;14.69;100.00;99922.09;6211051;28;20522;-90
2022/09/13 03:52:29;;;;;;;14.45;5.82;;;;;;;14.72;100.00;99937.41;6211127;28;20543;-90
2022/09/13 03:55:37;;;;;;;7.97;5.80;;;;;;;14.76;100.00;99941.31;6209508;28;20062;-90
2022/09/13 03:58:39;;;;;;;7.55;5.30;;;;;;;14.77;100.00;99919.50;6195314;28;20056;-90
2022/09/13 04:01:43;;;;;;;8.10;5.10;;;;;;;14.77;100.00;99914.28;6210673;28;20161;-90
2022/09/13 04:04:45;;;;;;;6.80;5.53;;;;;;;14.72;100.00;99916.56;6210190;28;20042;-90
2022/09/13 04:07:47;;;;;;;6.35;5.15;;;;;;;14.71;100.00;99920.16;6271811;28;20060;-90
2022/09/13 04:10:51;;;;;;;9.77;5.63;;;;;;;14.69;100.00;99913.47;6298842;28;20530;-90
2022/09/13 04:13:53;;;;;;;9.52;5.80;;;;;;;14.64;100.00;99906.97;6275571;28;20040;-90
2022/09/13 04:16:56;;;;;;;7.15;5.50;;;;;;;14.63;100.00;99904.50;6277281;28;20044;-90
2022/09/13 04:19:58;;;;;;;7.72;5.53;;;;;;;14.63;100.00;99922.75;6277906;28;20599;-90
2022/09/13 04:22:59;;;;;;;9.77;5.40;;;;;;;14.68;100.00;99922.25;6281081;28;20051;-90
2022/09/13 04:26:03;;;;;;;10.75;5.85;;;;;;;14.70;100.00;99915.09;6276685;28;20384;-90
2022/09/13 04:29:05;;;;;;;8.20;5.97;;;;;;;14.69;100.00;99913.47;6285525;28;20481;-90
2022/09/13 04:32:08;;;;;;;8.70;6.10;;;;;;;14.67;100.00;99916.25;6281727;28;20123;-90
2022/09/13 04:35:10;;;;;;;8.43;5.50;;;;;;;14.69;100.00;99927.31;6274634;28;20446;-90
2022/09/13 04:38:12;;;;;;;8.52;5.53;;;;;;;14.68;100.00;99924.88;6283535;28;20086;-90
2022/09/13 04:41:16;;;;;;;7.90;5.82;;;;;;;14.69;100.00;99922.09;6277905;28;20037;-89
2022/09/13 04:44:19;;;;;;;6.20;5.28;;;;;;;14.71;100.00;99917.56;6275408;28;20543;-90
2022/09/13 04:47:21;;;;;;;7.05;5.25;;;;;;;14.72;100.00;99913.16;6261340;28;20048;-90
2022/09/13 04:50:24;;;;;;;6.20;4.95;;;;;;;14.71;100.00;99920.16;6277127;28;20039;-90
2022/09/13 04:53:26;;;;;;;7.70;5.15;;;;;;;14.72;100.00;99924.38;6280694;28;20032;-90
2022/09/13 04:56:28;;;;;;;7.45;5.10;;;;;;;14.73;100.00;99923.41;6284836;28;20109;-89
2022/09/13 04:59:29;;;;;;;7.97;5.28;;;;;;;14.74;100.00;99914.63;6277558;28;20407;-89
2022/09/13 05:02:31;;;;;;;7.43;5.00;;;;;;;14.77;100.00;99914.28;6266568;28;20037;-89
2022/09/13 05:05:33;;;;;;;6.78;5.18;;;;;;;14.77;100.00;99914.28;6269649;28;20048;-90
2022/09/13 05:08:36;;;;;;;7.50;6.03;;;;;;;14.79;100.00;99916.72;6265901;28;20522;-90
2022/09/13 05:11:38;;;;;;;6.82;5.30;;;;;;;14.81;100.00;99920.00;6285821;28;20048;-90
2022/09/13 05:14:40;;;;;;;11.15;5.78;;;;;;;14.87;100.00;99929.75;6285426;28;20808;-90
2022/09/13 05:17:41;;;;;;;7.53;4.93;;;;;;;14.91;100.00;99930.25;6281771;28;20033;-89
2022/09/13 05:20:44;;;;;;;6.45;5.07;;;;;;;14.95;100.00;99928.94;6277061;28;20052;-89
2022/09/13 05:23:50;;;;;;;8.98;5.47;;;;;;;14.98;100.00;99923.38;6278100;28;20043;-89
2022/09/13 05:26:52;;;;;;;8.95;5.75;;;;;;;15.01;100.00;99929.09;6280015;28;20109;-89
2022/09/13 05:29:54;;;;;;;6.78;5.13;;;;;;;15.03;100.00;99921.09;6284142;28;20112;-89
2022/09/13 05:32:56;;;;;;;6.78;5.43;;;;;;;15.05;100.00;99919.97;6278937;28;20405;-89
2022/09/13 05:35:58;;;;;;;8.05;5.47;;;;;;;15.12;100.00;99930.53;6269025;28;20045;-89
2022/09/13 05:39:00;;;;;;;7.07;5.22;;;;;;;15.15;100.00;99929.41;6272637;28;20491;-89
2022/09/13 05:42:22;;;;;;;5.55;4.65;;;;;;;15.18;100.00;99931.66;6277620;28;20048;-89
2022/09/13 05:45:24;;;;;;;6.40;4.82;;;;;;;15.21;100.00;99937.38;6281807;28;20766;-89
2022/09/13 05:48:25;;;;;;;5.65;4.75;;;;;;;15.26;100.00;99934.28;6275146;28;20511;-89
2022/09/13 05:51:27;;;;;;;9.68;5.07;;;;;;;15.31;100.00;99931.19;6276934;28;20063;-89
2022/09/13 05:54:29;;;;;;;7.40;5.00;;;;;;;15.37;100.00;99920.88;6273991;28;20045;-89
2022/09/13 05:57:31;;;;;;;6.03;5.43;;;;;;;15.42;100.00;99923.78;6276772;28;20286;-90
2022/09/13 06:00:33;;;;;;;6.55;5.20;;;;;;;15.49;100.00;99923.94;6275714;28;20040;-89
2022/09/13 06:03:35;;;;;;;8.20;5.53;;;;;;;15.55;100.00;99931.09;6276690;28;20064;-89
2022/09/13 06:06:37;;;;;;;5.70;5.10;;;;;;;15.62;100.00;99921.59;6271484;28;20174;-89
2022/09/13 06:09:40;;;;;;;7.43;5.13;;;;;;;15.69;100.00;99922.59;6277323;28;20041;-89
2022/09/13 06:12:42;;;;;;;6.80;4.72;;;;;;;15.78;100.00;99926.00;6282268;28;20047;-89
2022/09/13 06:15:43;;;;;;;6.72;5.10;;;;;;;15.85;100.00;99921.72;6275453;28;20634;-89
2022/09/13 06:18:45;;;;;;;6.53;5.28;;;;;;;15.92;100.00;99919.22;6284804;28;20048;-89
2022/09/13 06:21:47;;;;;;;6.45;5.60;;;;;;;15.98;100.00;99917.75;6266121;28;20663;-89
2022/09/13 06:24:49;;;;;;;7.78;5.22;;;;;;;16.04;100.00;99919.66;6271123;28;20039;-89
2022/09/13 06:27:50;;;;;;;7.82;5.50;;;;;;;16.09;100.00;99905.09;6274663;28;20040;-89
2022/09/13 06:30:59;;;;;;;7.20;5.00;;;;;;;16.11;100.00;99910.97;6291798;28;20044;-89
2022/09/13 06:34:04;;;;;;;6.15;5.03;;;;;;;16.13;100.00;99906.38;6277085;28;20045;-89
2022/09/13 06:37:06;;;;;;;13.73;5.70;;;;;;;16.16;100.00;99905.22;6276136;28;20115;-89
2022/09/13 06:40:08;;;;;;;11.90;5.28;;;;;;;16.21;100.00;99896.88;6280169;28;20124;-89
2022/09/13 06:43:10;;;;;;;7.90;5.32;;;;;;;16.33;100.00;99903.34;6280685;28;20041;-89
2022/09/13 06:46:14;;;;;;;7.07;5.15;;;;;;;16.43;100.00;99903.09;6296660;28;20071;-89
2022/09/13 06:49:16;;;;;;;7.50;5.03;;;;;;;16.46;100.00;99908.78;6266744;28;20402;-89
2022/09/13 06:52:18;;;;;;;7.00;5.25;;;;;;;16.52;100.00;99912.50;6270017;28;20594;-89
2022/09/13 06:55:20;;;;;;;7.10;4.80;;;;;;;16.60;100.00;99920.28;6282989;28;20036;-89
2022/09/13 06:58:22;;;;;;;6.38;4.70;;;;;;;16.71;100.00;99916.44;6285998;28;20064;-89
2022/09/13 07:01:27;;;;;;;6.97;4.72;;;;;;;16.82;100.00;99921.28;6283883;28;20044;-90
2022/09/13 07:04:32;;;;;;;7.70;5.10;;;;;;;16.90;100.00;99929.03;6283271;28;20048;-90
2022/09/13 07:07:34;;;;;;;7.28;5.15;;;;;;;16.99;100.00;99922.75;6278333;28;20072;-90
2022/09/13 07:10:37;;;;;;;10.63;5.72;;;;;;;17.00;100.00;99924.38;6283246;28;20044;-90
2022/09/13 07:13:39;;;;;;;11.13;6.57;;;;;;;17.07;100.00;99928.88;6280923;28;20036;-90
2022/09/13 07:16:41;;;;;;;8.68;5.47;;;;;;;17.20;100.00;99927.28;6286887;28;20075;-90
2022/09/13 07:19:43;;;;;;;8.27;5.18;;;;;;;17.38;100.00;99924.31;6280647;28;20049;-90
2022/09/13 07:22:45;;;;;;;6.22;4.88;;;;;;;17.53;100.00;99926.13;6284029;28;20087;-89
2022/09/13 07:25:54;;;;;;;6.95;4.78;;;;;;;17.66;100.00;99934.13;6280652;28;20070;-89
2022/09/13 07:29:04;;;;;;;7.78;5.07;;;;;;;17.70;100.00;99929.38;6276227;28;20044;-89
2022/09/13 07:32:06;;;;;;;6.75;5.38;;;;;;;17.55;100.00;99932.78;6263571;28;20485;-89
2022/09/13 07:35:08;;;;;;;9.18;5.55;;;;;;;17.46;100.00;99936.50;6276079;28;20052;-89
2022/09/13 07:38:09;;;;;;;5.57;4.68;;;;;;;17.37;100.00;99935.78;6267166;28;20162;-89
2022/09/13 07:41:14;;;;;;;5.20;4.45;;;;;;;17.29;100.00;99933.25;6271698;28;20114;-89
2022/09/13 07:44:16;;;;;;;7.25;5.30;;;;;;;17.24;100.00;99935.56;6284106;28;20043;-89
2022/09/13 07:47:18;;;;;;;6.20;4.95;;;;;;;17.16;100.00;99938.28;6284295;28;20378;-90
2022/09/13 07:50:20;;;;;;;6.47;5.20;;;;;;;17.09;100.00;99938.19;6279635;28;20493;-90
2022/09/13 07:53:22;;;;;;;6.25;5.00;;;;;;;17.08;100.00;99941.78;6274511;28;20045;-90
2022/09/13 07:56:27;;;;;;;6.07;5.25;;;;;;;17.09;100.00;99942.59;6272537;28;20041;-90
2022/09/13 07:59:28;;;;;;;7.40;5.80;;;;;;;17.04;100.00;99953.59;6271464;28;20044;-90
2022/09/13 08:02:31;;;;;;;8.00;6.40;;;;;;;17.04;100.00;99958.81;6280546;28;20044;-91
2022/09/13 08:05:38;;;;;;;9.52;6.70;;;;;;;17.00;100.00;99954.94;6268460;28;20047;-90
2022/09/13 08:08:40;;;;;;;7.35;5.70;;;;;;;17.01;100.00;99946.91;6295487;28;20380;-90
2022/09/13 08:11:45;;;;;;;8.55;6.60;;;;;;;17.14;100.00;99951.56;6280555;28;20082;-91
2022/09/13 08:14:47;;;;;;;7.50;5.55;;;;;;;17.25;100.00;99965.19;6277505;28;20557;-90
2022/09/13 08:17:49;;;;;;;7.70;5.60;;;;;;;17.39;100.00;99962.59;6278091;28;20044;-91
2022/09/13 08:20:56;;;;;;;9.10;6.00;;;;;;;17.59;100.00;99959.44;6278709;28;20446;-90
2022/09/13 08:23:59;;;;;;;11.52;6.32;;;;;;;17.72;100.00;99964.03;6283451;28;20044;-90
2022/09/13 08:27:04;;;;;;;8.77;5.80;;;;;;;17.74;100.00;99967.25;6283167;28;20041;-90
2022/09/13 08:30:07;;;;;;;7.93;5.65;;;;;;;17.80;100.00;99966.56;6276627;28;20036;-90
2022/09/13 08:33:12;;;;;;;8.30;5.88;;;;;;;17.77;100.00;99970.34;6277926;28;20033;-90
2022/09/13 08:36:16;;;;;;;11.23;6.15;;;;;;;17.90;100.00;99982.81;6276310;28;20398;-90
2022/09/13 08:39:18;;;;;;;8.65;6.35;;;;;;;18.05;100.00;99977.56;6276987;28;20923;-90
2022/09/13 08:42:48;;;;;;;8.95;6.65;;;;;;;18.30;100.00;99970.19;6268731;28;20210;-89
2022/09/13 08:46:04;;;;;;;9.43;6.72;;;;;;;18.48;100.00;99961.91;6268707;28;20045;-89
2022/09/13 08:49:11;;;;;;;10.95;6.60;;;;;;;18.58;100.00;99970.25;6272872;28;20596;-89
2022/09/13 08:52:28;;;;;;;8.82;6.68;;;;;;;18.57;100.00;99957.34;6254328;28;20040;-90
2022/09/13 08:55:45;;;;;;;9.95;6.97;;;;;;;18.56;100.00;99960.97;6285423;28;20079;-90
2022/09/13 08:59:09;;;;;;;11.73;6.97;;;;;;;18.52;100.00;99966.56;6276193;28;20077;-89
2022/09/13 09:02:34;;;;;;;13.60;6.97;;;;;;;18.47;100.00;99955.84;6274614;28;20473;-90
2022/09/13 09:05:48;;;;;;;9.02;6.80;;;;;;;18.46;100.00;99958.66;6268153;28;20491;-90
2022/09/13 09:08:57;;;;;;;9.25;6.45;;;;;;;18.65;100.00;99960.66;6267780;28;20048;-90
2022/09/13 09:12:21;;;;;;;10.30;6.55;;;;;;;18.86;100.00;99951.19;6275953;28;20430;-90
2022/09/13 09:15:28;;;;;;;9.73;6.53;;;;;;;18.92;100.00;99961.72;6278061;28;20467;-90
2022/09/13 09:18:42;;;;;;;9.00;6.18;;;;;;;18.93;100.00;99978.25;6282156;28;20056;-90
2022/09/13 09:21:49;;;;;;;10.07;7.20;;;;;;;19.02;100.00;99973.72;6279207;28;20044;-91
2022/09/13 09:24:55;;;;;;;8.10;6.40;;;;;;;19.14;100.00;99970.38;6274044;28;20558;-90
2022/09/13 09:27:58;;;;;;;9.27;6.03;;;;;;;19.61;100.00;99972.50;6280227;28;20071;-90
2022/09/13 09:31:12;;;;;;;8.45;6.68;;;;;;;19.97;100.00;99959.97;6278451;28;20425;-91
2022/09/13 09:34:45;;;;;;;9.07;6.47;;;;;;;20.36;100.00;99968.97;6279074;28;20044;-89
2022/09/13 09:38:07;;;;;;;9.38;6.85;;;;;;;20.48;100.00;99957.88;6256103;28;20053;-90
2022/09/13 09:41:31;;;;;;;7.95;6.40;;;;;;;20.42;100.00;99951.56;6238721;28;20136;-90
2022/09/13 09:44:33;;;;;;;9.27;6.35;;;;;;;20.32;100.00;99962.50;6250192;28;20110;-90
2022/09/13 09:47:44;;;;;;;9.20;6.22;;;;;;;20.22;100.00;99967.31;6231118;28;20147;-89
2022/09/13 09:50:51;;;;;;;10.10;6.35;;;;;;;20.25;100.00;99964.31;6236402;28;20189;-90
2022/09/13 09:54:01;;;;;;;10.27;7.45;;;;;;;20.33;100.00;99953.59;6236783;28;20052;-91
2022/09/13 09:57:04;;;;;;;12.25;7.43;;;;;;;20.31;100.00;99958.22;6255830;28;20091;-90
2022/09/13 10:00:11;;;;;;;10.82;7.82;;;;;;;20.40;100.00;99949.16;6253822;28;20110;-90
2022/09/13 10:03:27;;;;;;;9.38;6.45;;;;;;;20.77;100.00;99954.06;6251601;28;20078;-90
2022/09/13 10:06:30;;;;;;;8.27;6.25;;;;;;;20.95;100.00;99962.19;6255871;28;20144;-90
2022/09/13 10:09:33;;;;;;;8.65;6.53;;;;;;;20.96;100.00;99968.25;6229828;28;20144;-90
2022/09/13 10:12:38;;;;;;;12.35;7.97;;;;;;;20.91;100.00;99966.22;6238557;28;20056;-90
2022/09/13 10:15:56;;;;;;;10.55;8.18;;;;;;;20.96;100.00;99958.53;6296685;28;20493;-90
2022/09/13 10:19:24;;;;;;;11.45;7.80;;;;;;;21.01;100.00;99956.09;6306451;28;20053;-90
2022/09/13 10:22:27;;;;;;;11.70;8.13;;;;;;;21.00;100.00;99953.69;6288558;28;20046;-90
2022/09/13 10:25:30;;;;;;;9.90;7.47;;;;;;;21.01;100.00;99963.19;6289788;28;20086;-89
2022/09/13 10:28:35;;;;;;;8.93;6.70;;;;;;;20.71;100.00;99958.31;6285708;28;20525;-90
2022/09/13 10:31:45;;;;;;;9.63;6.75;;;;;;;20.39;100.00;99962.50;6284489;28;20033;-90
2022/09/13 10:34:52;;;;;;;11.18;7.38;;;;;;;20.13;100.00;99961.44;6292375;28;20141;-90
2022/09/13 10:37:53;;;;;;;7.78;6.30;;;;;;;20.26;100.00;99965.91;6283713;28;20041;-89
2022/09/13 10:40:56;;;;;;;9.65;6.60;;;;;;;20.58;100.00;99955.69;6268343;28;20147;-89
2022/09/13 10:44:00;;;;;;;13.57;7.75;;;;;;;20.92;100.00;99956.50;6292187;28;20125;-89
2022/09/13 10:47:06;;;;;;;10.30;7.25;;;;;;;21.19;100.00;99957.28;6280981;28;20048;-90
2022/09/13 10:50:20;;;;;;;11.23;8.27;;;;;;;21.30;100.00;99964.56;6284752;28;20041;-89
2022/09/13 10:53:31;;;;;;;11.88;8.00;;;;;;;21.18;100.00;99961.75;6284721;28;20603;-89
2022/09/13 10:56:33;;;;;;;;;;;;;;;21.08;100.00;99954.25;6285515;28;20049;-89
2022/09/13 10:59:37;;;;;;;11.63;8.35;;;;;;;21.06;100.00;99958.13;6286986;28;20290;-89
2022/09/13 11:03:06;;;;;;;11.73;8.85;;;;;;;21.37;100.00;99961.94;6284598;28;20076;-90
2022/09/13 11:06:21;;;;;;;11.10;8.32;;;;;;;21.83;100.00;99964.44;6289115;28;20037;-90
2022/09/13 11:09:48;;;;;;;10.20;8.07;;;;;;;21.64;100.00;99967.94;6286758;28;20032;-89
2022/09/13 11:13:13;;;;;;;12.98;8.52;;;;;;;21.42;100.00;99962.16;6288140;28;20254;-90
2022/09/13 11:16:43;;;;;;;11.32;9.05;;;;;;;21.08;100.00;99956.91;6283550;28;20037;-89
2022/09/13 11:20:04;;;;;;;10.88;8.30;;;;;;;20.89;100.00;99952.44;6289822;28;20109;-90
2022/09/13 11:23:28;;;;;;;14.93;9.35;;;;;;;21.00;100.00;99951.06;6291085;28;20174;-90
2022/09/13 11:26:40;;;;;;;11.63;9.77;;;;;;;21.18;100.00;99948.59;6278822;28;20037;-90
2022/09/13 11:30:01;;;;;;;12.43;9.57;;;;;;;21.34;100.00;99949.16;6280709;28;20632;-90
2022/09/13 11:33:05;;;;;;;;;;;;;;;21.26;100.00;99947.56;6282540;28;20135;-90
2022/09/13 11:36:32;;;;;;;12.23;10.02;;;;;;;20.97;100.00;99939.09;6284576;28;19924;-89
2022/09/13 11:40:09;;;;;;;14.88;10.70;;;;;;;20.77;100.00;99940.91;6283839;28;20064;-90
2022/09/13 11:43:48;;;;;;;13.80;10.15;;;;;;;20.48;100.00;99940.28;6181301;28;20057;-89
2022/09/13 11:47:01;;;;;;;11.98;9.90;;;;;;;20.12;100.00;99936.16;6186726;28;20118;-88
2022/09/13 11:50:19;;;;;;;12.95;10.48;;;;;;;19.99;100.00;99944.00;6184087;28;20212;-90
2022/09/13 11:53:35;;;;;;;12.82;10.70;;;;;;;20.03;100.00;99947.84;6171905;28;20133;-89
2022/09/13 11:56:40;;;;;;;14.30;11.52;;;;;;;20.18;100.00;99947.69;6164940;28;20456;-89
2022/09/13 11:59:52;;;;;;;16.83;12.55;;;;;;;20.49;100.00;99939.25;6166226;28;20142;-90
2022/09/13 12:03:00;;;;;;;15.85;11.48;;;;;;;20.79;100.00;99952.84;6185334;28;20192;-89
2022/09/13 12:06:37;;;;;;;15.70;12.25;;;;;;;20.83;100.00;99951.44;6169858;28;20054;-89
2022/09/13 12:09:54;;;;;;;15.45;11.45;;;;;;;20.77;100.00;99944.38;6112647;29;20059;-90
2022/09/13 12:12:57;;;;;;;16.92;12.27;;;;;;;20.73;100.00;99942.34;6097514;29;20395;-89
2022/09/13 12:16:03;;;;;;;14.65;11.40;;;;;;;20.55;100.00;99937.69;6116044;29;20058;-89
2022/09/13 12:19:23;;;;;;;14.02;11.48;;;;;;;20.62;100.00;99943.75;6126199;28;20085;-89
2022/09/13 12:22:29;;;;;;;10.82;9.57;;;;;;;20.79;100.00;99936.25;6185102;28;20420;-89
2022/09/13 12:26:08;;;;;;;11.45;9.52;;;;;;;20.75;100.00;99940.34;6184406;28;20046;-89
2022/09/13 12:29:47;;;;;;;11.15;8.70;;;;;;;20.52;100.00;99935.41;6185933;28;20334;-88
2022/09/13 12:32:51;;;;;;;12.43;8.82;;;;;;;20.36;100.00;99934.78;6184004;28;20437;-89
2022/09/13 12:36:11;;;;;;;10.63;8.25;;;;;;;20.29;100.00;99948.94;6183676;28;20473;-89
2022/09/13 12:39:22;;;;;;;11.95;8.38;;;;;;;20.33;100.00;99937.03;6178038;28;20050;-89
2022/09/13 12:42:58;;;;;;;13.63;9.93;;;;;;;20.37;100.00;99936.41;6183551;28;20080;-89
2022/09/13 12:46:34;;;;;;;13.63;9.07;;;;;;;20.64;100.00;99946.97;6217475;28;20049;-88
2022/09/13 12:50:10;;;;;;;9.55;7.78;;;;;;;20.35;100.00;99938.44;6276575;28;20041;-89
2022/09/13 12:53:51;;;;;;;7.93;5.97;;;;;;;20.18;100.00;99950.31;6271585;28;20853;-89
2022/09/13 12:57:18;;;;;;;8.75;6.70;;;;;;;19.92;100.00;99948.41;6275582;28;20041;-89
2022/09/13 13:00:29;;;;;;;6.72;6.03;;;;;;;20.49;100.00;99933.19;6279883;28;20059;-89
2022/09/13 13:03:35;;;;;;;7.82;5.50;;;;;;;21.25;100.00;99951.22;6276188;28;20383;-89
2022/09/13 13:06:46;;;;;;;5.95;5.40;;;;;;;21.36;100.00;99933.97;6275792;28;20820;-88
2022/09/13 13:09:52;;;;;;;6.40;5.20;;;;;;;21.28;100.00;99924.47;6279211;28;20047;-89
2022/09/13 13:12:54;;;;;;;5.60;5.00;;;;;;;21.30;100.00;99932.97;6271516;28;20098;-89
2022/09/13 13:16:01;;;;;;;6.03;5.00;;;;;;;21.29;100.00;99941.88;6276282;28;20040;-89
2022/09/13 13:19:24;;;;;;;6.20;4.80;;;;;;;21.37;100.00;99928.50;6275656;28;20036;-89
2022/09/13 13:22:44;;;;;;;6.68;5.22;;;;;;;21.46;100.00;99924.66;6277381;28;20024;-89
2022/09/13 13:26:16;;;;;;;4.70;4.30;;;;;;;21.26;100.00;99924.66;6267355;28;20060;-89
2022/09/13 13:29:34;;;;;;;4.53;4.13;;;;;;;20.88;100.00;99931.63;6271972;28;20271;-89
2022/09/13 13:32:36;;;;;;;4.95;4.25;;;;;;;20.92;100.00;99930.19;6269685;28;20037;-89
2022/09/13 13:35:38;;;;;;;4.20;3.80;;;;;;;21.23;100.00;99929.56;6278459;28;20048;-89
2022/09/13 13:38:44;;;;;;;5.10;3.80;;;;;;;21.50;100.00;99939.03;6275212;28;20450;-89
2022/09/13 13:42:09;;;;;;;4.78;3.72;;;;;;;21.26;100.00;99926.50;6275781;28;20037;-89
2022/09/13 13:45:23;;;;;;;3.38;3.08;;;;;;;21.07;100.00;99925.53;6281611;28;20419;-89
2022/09/13 13:48:40;;;;;;;5.13;2.90;;;;;;;21.46;100.00;99926.47;6272824;28;20044;-89
2022/09/13 13:51:41;;;;;;;3.92;3.28;;;;;;;21.67;100.00;99923.59;6270115;28;20037;-89
2022/09/13 13:55:28;;;;;;;5.45;3.13;;;;;;;22.12;100.00;99910.38;6276485;28;20029;-89
2022/09/13 13:58:42;;;;;;;3.80;3.28;;;;;;;22.56;99.97;99911.34;6272339;28;20139;-89
2022/09/13 14:01:50;;;;;;;4.10;2.85;;;;;;;22.71;97.28;99908.38;6274952;28;20048;-89
2022/09/13 14:05:16;;;;;;;4.38;2.83;;;;;;;22.71;95.31;99908.38;6266945;28;20037;-89
2022/09/13 14:08:46;;;;;;;4.00;2.30;;;;;;;22.69;98.00;99907.78;6290182;28;20394;-89
2022/09/13 14:11:56;;;;;;;2.92;2.63;;;;;;;22.64;95.95;99914.75;6271236;28;20028;-90
2022/09/13 14:15:18;;;;;;;3.53;2.57;;;;;;;22.35;95.16;99901.94;6272616;28;20058;-90
2022/09/13 14:18:32;;;;;;;4.10;2.50;;;;;;;22.31;98.57;99900.78;6235572;28;20513;-90
2022/09/13 14:21:33;;;;;;;3.83;2.38;;;;;;;22.25;96.99;99908.72;6246794;28;20088;-89
2022/09/13 14:24:37;;;;;;;2.22;1.80;;;;;;;22.50;96.99;99914.81;6254738;28;20042;-90
2022/09/13 14:27:42;;;;;;;3.08;2.20;;;;;;;22.77;93.85;99901.44;6254156;28;20052;-90
2022/09/13 14:30:45;;;;;;;3.05;2.30;;;;;;;22.72;94.71;99894.16;6249759;28;20056;-90
2022/09/13 14:33:47;;;;;;;4.32;2.25;;;;;;;22.52;93.16;99899.59;6251944;28;20546;-90
2022/09/13 14:36:58;;;;;;;2.22;2.03;;;;;;;22.41;95.14;99883.66;6250847;28;20124;-90
2022/09/13 14:40:25;;;;;;;1.63;1.52;;;;;;;22.61;93.96;99883.50;6252267;28;20072;-90
2022/09/13 14:43:28;;;;;;;4.43;1.95;;;;;;;22.72;89.90;99874.88;6234366;28;20042;-90